sensor_id;sensor_type;location;lat;lon;timestamp;pressure;altitude;pressure_sealevel;temperature;humidity
10921;BME280;5513;50.580;8.818;2023-03-20T00:02:22;99219.59;;;10.92;100.00
10921;BME280;5513;50.580;8.818;2023-03-20T00:04:51;99232.63;;;10.95;100.00
10921;BME280;5513;50.580;8.818;2023-03-20T00:07:20;99232.06;;;10.90;100.00
10921;BME280;5513;50.580;8.818;2023-03-20T00:09:49;99232.72;;;10.94;100.00
10921;BME280;5513;50.580;8.818;2023-03-20T00:12:22;99234.69;;;10.90;100.00
10921;BME280;5513;50.580;8.818;2023-03-20T00:14:52;99233.09;;;10.87;100.00
10921;BME280;5513;50.580;8.818;2023-03-20T00:17:20;99229.81;;;10.84;100.00
10921;BME280;5513;50.580;8.818;2023-03-20T00:19:49;99238.03;;;10.94;100.00
10921;BME280;5513;50.580;8.818;2023-03-20T00:22:19;99234.53;;;10.79;100.00
10921;BME280;5513;50.580;8.818;2023-03-20T00:24:48;99240.03;;;10.76;100.00
10921;BME280;5513;50.580;8.818;2023-03-20T00:27:18;99245.03;;;10.80;100.00
10921;BME280;5513;50.580;8.818;2023-03-20T00:29:49;99246.56;;;10.84;100.00
10921;BME280;5513;50.580;8.818;2023-03-20T00:32:18;99249.03;;;10.73;100.00
10921;BME280;5513;50.580;8.818;2023-03-20T00:34:46;99249.03;;;10.59;100.00
10921;BME280;5513;50.580;8.818;2023-03-20T00:37:14;99248.97;;;10.46;100.00
10921;BME280;5513;50.580;8.818;2023-03-20T00:39:44;99251.63;;;10.46;100.00
10921;BME280;5513;50.580;8.818;2023-03-20T00:42:18;99244.22;;;10.51;100.00
10921;BME280;5513;50.580;8.818;2023-03-20T00:44:51;99253.22;;;10.63;100.00
10921;BME280;5513;50.580;8.818;2023-03-20T00:47:23;99246.50;;;10.72;100.00
10921;BME280;5513;50.580;8.818;2023-03-20T00:49:53;99258.78;;;10.58;100.00
10921;BME280;5513;50.580;8.818;2023-03-20T00:52:23;99259.84;;;10.56;100.00
10921;BME280;5513;50.580;8.818;2023-03-20T00:54:52;99259.38;;;10.64;100.00
10921;BME280;5513;50.580;8.818;2023-03-20T00:57:23;99261.53;;;10.57;100.00
10921;BME280;5513;50.580;8.818;2023-03-20T01:00:00;99267.31;;;10.64;100.00
10921;BME280;5513;50.580;8.818;2023-03-20T01:02:32;99263.72;;;10.65;100.00
10921;BME280;5513;50.580;8.818;2023-03-20T01:05:01;99262.28;;;10.59;100.00
10921;BME280;5513;50.580;8.818;2023-03-20T01:07:32;99262.59;;;10.54;100.00
10921;BME280;5513;50.580;8.818;2023-03-20T01:10:02;99267.13;;;10.52;100.00
10921;BME280;5513;50.580;8.818;2023-03-20T01:12:31;99261.16;;;10.49;100.00
10921;BME280;5513;50.580;8.818;2023-03-20T01:15:02;99258.25;;;10.53;100.00
10921;BME280;5513;50.580;8.818;2023-03-20T01:17:30;99260.09;;;10.51;100.00
10921;BME280;5513;50.580;8.818;2023-03-20T01:20:01;99267.41;;;10.48;100.00
10921;BME280;5513;50.580;8.818;2023-03-20T01:22:29;99265.41;;;10.51;100.00
10921;BME280;5513;50.580;8.818;2023-03-20T01:24:58;99258.72;;;10.46;100.00
10921;BME280;5513;50.580;8.818;2023-03-20T01:27:28;99258.13;;;10.41;100.00
10921;BME280;5513;50.580;8.818;2023-03-20T01:29:57;99264.22;;;10.43;100.00
10921;BME280;5513;50.580;8.818;2023-03-20T01:32:28;99262.47;;;10.42;100.00
10921;BME280;5513;50.580;8.818;2023-03-20T01:34:58;99262.22;;;10.46;100.00
10921;BME280;5513;50.580;8.818;2023-03-20T01:37:27;99265.22;;;10.40;100.00
10921;BME280;5513;50.580;8.818;2023-03-20T01:39:55;99267.78;;;10.42;100.00
10921;BME280;5513;50.580;8.818;2023-03-20T01:42:24;99267.22;;;10.37;100.00
10921;BME280;5513;50.580;8.818;2023-03-20T01:44:53;99264.81;;;10.18;100.00
10921;BME280;5513;50.580;8.818;2023-03-20T01:47:23;99259.78;;;10.13;100.00
10921;BME280;5513;50.580;8.818;2023-03-20T01:50:22;99267.06;;;10.10;100.00
10921;BME280;5513;50.580;8.818;2023-03-20T01:53:05;99267.34;;;10.19;100.00
10921;BME280;5513;50.580;8.818;2023-03-20T01:55:36;99269.50;;;10.13;100.00
10921;BME280;5513;50.580;8.818;2023-03-20T01:58:08;99268.50;;;10.15;100.00
10921;BME280;5513;50.580;8.818;2023-03-20T02:00:38;99265.97;;;10.14;100.00
10921;BME280;5513;50.580;8.818;2023-03-20T02:03:07;99267.63;;;10.00;100.00
10921;BME280;5513;50.580;8.818;2023-03-20T02:05:39;99271.50;;;9.95;100.00
10921;BME280;5513;50.580;8.818;2023-03-20T02:08:15;99280.34;;;9.94;100.00
10921;BME280;5513;50.580;8.818;2023-03-20T02:10:45;99278.19;;;10.00;100.00
10921;BME280;5513;50.580;8.818;2023-03-20T02:13:15;99282.34;;;9.90;100.00
10921;BME280;5513;50.580;8.818;2023-03-20T02:15:59;99279.03;;;9.87;100.00
10921;BME280;5513;50.580;8.818;2023-03-20T02:18:29;99289.03;;;9.82;100.00
10921;BME280;5513;50.580;8.818;2023-03-20T02:24:26;99278.84;;;9.90;100.00
10921;BME280;5513;50.580;8.818;2023-03-20T02:27:06;99280.34;;;9.94;100.00
10921;BME280;5513;50.580;8.818;2023-03-20T02:30:08;99279.06;;;10.01;100.00
10921;BME280;5513;50.580;8.818;2023-03-20T02:36:39;99269.88;;;9.92;100.00
10921;BME280;5513;50.580;8.818;2023-03-20T02:39:28;99271.00;;;9.88;100.00
10921;BME280;5513;50.580;8.818;2023-03-20T02:42:04;99266.28;;;9.93;100.00
10921;BME280;5513;50.580;8.818;2023-03-20T02:44:40;99278.59;;;9.94;100.00
10921;BME280;5513;50.580;8.818;2023-03-20T02:47:15;99291.63;;;9.97;100.00
10921;BME280;5513;50.580;8.818;2023-03-20T02:49:53;99289.22;;;9.93;100.00
10921;BME280;5513;50.580;8.818;2023-03-20T02:52:30;99292.66;;;9.95;100.00
10921;BME280;5513;50.580;8.818;2023-03-20T02:55:14;99293.03;;;10.03;100.00
10921;BME280;5513;50.580;8.818;2023-03-20T02:57:50;99289.28;;;10.07;100.00
10921;BME280;5513;50.580;8.818;2023-03-20T03:00:27;99289.00;;;10.12;100.00
10921;BME280;5513;50.580;8.818;2023-03-20T03:03:00;99298.47;;;10.16;100.00
10921;BME280;5513;50.580;8.818;2023-03-20T03:05:37;99304.09;;;10.25;100.00
10921;BME280;5513;50.580;8.818;2023-03-20T03:08:07;99298.69;;;10.27;100.00
10921;BME280;5513;50.580;8.818;2023-03-20T03:10:45;99303.75;;;10.16;100.00
10921;BME280;5513;50.580;8.818;2023-03-20T03:13:19;99298.47;;;10.16;100.00
10921;BME280;5513;50.580;8.818;2023-03-20T03:15:52;99298.91;;;10.08;100.00
10921;BME280;5513;50.580;8.818;2023-03-20T03:18:24;99296.16;;;10.25;100.00
10921;BME280;5513;50.580;8.818;2023-03-20T03:20:56;99304.50;;;10.18;100.00
10921;BME280;5513;50.580;8.818;2023-03-20T03:23:27;99296.47;;;10.19;100.00
10921;BME280;5513;50.580;8.818;2023-03-20T03:26:01;99296.94;;;10.12;100.00
10921;BME280;5513;50.580;8.818;2023-03-20T03:28:34;99292.59;;;10.11;100.00
10921;BME280;5513;50.580;8.818;2023-03-20T03:31:07;99286.34;;;10.12;100.00
10921;BME280;5513;50.580;8.818;2023-03-20T03:33:39;99286.56;;;10.23;100.00
10921;BME280;5513;50.580;8.818;2023-03-20T03:36:16;99285.09;;;10.33;100.00
10921;BME280;5513;50.580;8.818;2023-03-20T03:38:54;99277.00;;;10.20;100.00
10921;BME280;5513;50.580;8.818;2023-03-20T03:41:29;99286.31;;;10.27;100.00
10921;BME280;5513;50.580;8.818;2023-03-20T03:44:05;99284.41;;;10.29;100.00
10921;BME280;5513;50.580;8.818;2023-03-20T03:46:39;99291.94;;;10.21;100.00
10921;BME280;5513;50.580;8.818;2023-03-20T03:49:13;99303.47;;;10.20;100.00
10921;BME280;5513;50.580;8.818;2023-03-20T03:51:45;99307.75;;;10.23;100.00
10921;BME280;5513;50.580;8.818;2023-03-20T03:54:17;99299.66;;;10.10;100.00
10921;BME280;5513;50.580;8.818;2023-03-20T03:56:49;99308.00;;;10.18;100.00
10921;BME280;5513;50.580;8.818;2023-03-20T03:59:22;99310.00;;;10.15;100.00
10921;BME280;5513;50.580;8.818;2023-03-20T04:01:53;99316.03;;;10.17;100.00
10921;BME280;5513;50.580;8.818;2023-03-20T04:04:24;99323.22;;;10.15;100.00
10921;BME280;5513;50.580;8.818;2023-03-20T04:06:54;99318.09;;;10.12;100.00
10921;BME280;5513;50.580;8.818;2023-03-20T04:09:23;99327.25;;;10.36;100.00
10921;BME280;5513;50.580;8.818;2023-03-20T04:11:53;99319.22;;;10.38;100.00
10921;BME280;5513;50.580;8.818;2023-03-20T04:14:22;99331.22;;;10.29;100.00
10921;BME280;5513;50.580;8.818;2023-03-20T04:16:50;99324.63;;;10.36;100.00
10921;BME280;5513;50.580;8.818;2023-03-20T04:19:19;99324.72;;;10.49;100.00
10921;BME280;5513;50.580;8.818;2023-03-20T04:21:48;99333.72;;;10.46;100.00
10921;BME280;5513;50.580;8.818;2023-03-20T04:24:16;99336.63;;;10.27;100.00
10921;BME280;5513;50.580;8.818;2023-03-20T04:26:44;99343.50;;;10.30;100.00
10921;BME280;5513;50.580;8.818;2023-03-20T04:29:16;99345.06;;;10.18;100.00
10921;BME280;5513;50.580;8.818;2023-03-20T04:31:44;99354.59;;;10.07;100.00
10921;BME280;5513;50.580;8.818;2023-03-20T04:34:13;99368.78;;;9.90;100.00
10921;BME280;5513;50.580;8.818;2023-03-20T04:36:42;99363.63;;;10.02;100.00
10921;BME280;5513;50.580;8.818;2023-03-20T04:39:11;99375.53;;;9.95;100.00
10921;BME280;5513;50.580;8.818;2023-03-20T04:41:41;99381.72;;;10.10;100.00
10921;BME280;5513;50.580;8.818;2023-03-20T04:44:10;99379.66;;;10.15;100.00
10921;BME280;5513;50.580;8.818;2023-03-20T04:46:41;99382.56;;;10.11;100.00
10921;BME280;5513;50.580;8.818;2023-03-20T04:49:10;99388.16;;;10.06;100.00
10921;BME280;5513;50.580;8.818;2023-03-20T04:51:39;99382.34;;;9.99;100.00
10921;BME280;5513;50.580;8.818;2023-03-20T04:54:07;99387.97;;;10.09;100.00
10921;BME280;5513;50.580;8.818;2023-03-20T04:56:35;99388.06;;;10.08;100.00
10921;BME280;5513;50.580;8.818;2023-03-20T04:59:04;99387.38;;;10.04;100.00
10921;BME280;5513;50.580;8.818;2023-03-20T05:01:32;99383.09;;;10.01;100.00
10921;BME280;5513;50.580;8.818;2023-03-20T05:04:05;99375.16;;;10.01;100.00
10921;BME280;5513;50.580;8.818;2023-03-20T05:06:34;99372.91;;;9.95;100.00
10921;BME280;5513;50.580;8.818;2023-03-20T05:09:03;99374.84;;;9.92;100.00
10921;BME280;5513;50.580;8.818;2023-03-20T05:11:32;99366.69;;;9.81;100.00
10921;BME280;5513;50.580;8.818;2023-03-20T05:14:01;99361.16;;;9.69;100.00
10921;BME280;5513;50.580;8.818;2023-03-20T05:16:31;99363.53;;;9.74;100.00
10921;BME280;5513;50.580;8.818;2023-03-20T05:18:59;99361.66;;;9.76;100.00
10921;BME280;5513;50.580;8.818;2023-03-20T05:21:31;99361.41;;;9.65;100.00
10921;BME280;5513;50.580;8.818;2023-03-20T05:24:00;99372.69;;;9.53;100.00
10921;BME280;5513;50.580;8.818;2023-03-20T05:26:30;99367.06;;;9.43;100.00
10921;BME280;5513;50.580;8.818;2023-03-20T05:28:59;99363.41;;;9.30;100.00
10921;BME280;5513;50.580;8.818;2023-03-20T05:31:28;99369.00;;;9.24;100.00
10921;BME280;5513;50.580;8.818;2023-03-20T05:33:56;99371.44;;;9.28;100.00
10921;BME280;5513;50.580;8.818;2023-03-20T05:36:26;99378.75;;;9.23;100.00
10921;BME280;5513;50.580;8.818;2023-03-20T05:38:57;99368.31;;;9.36;100.00
10921;BME280;5513;50.580;8.818;2023-03-20T05:41:25;99367.47;;;9.04;100.00
10921;BME280;5513;50.580;8.818;2023-03-20T05:43:54;99361.00;;;9.25;100.00
10921;BME280;5513;50.580;8.818;2023-03-20T05:46:24;99356.31;;;9.30;100.00
10921;BME280;5513;50.580;8.818;2023-03-20T05:48:55;99350.25;;;9.12;100.00
10921;BME280;5513;50.580;8.818;2023-03-20T05:51:23;99349.56;;;9.25;100.00
10921;BME280;5513;50.580;8.818;2023-03-20T05:53:52;99343.88;;;9.32;100.00
10921;BME280;5513;50.580;8.818;2023-03-20T05:56:22;99351.81;;;9.48;100.00
10921;BME280;5513;50.580;8.818;2023-03-20T05:58:52;99361.69;;;9.44;100.00
10921;BME280;5513;50.580;8.818;2023-03-20T06:01:20;99353.94;;;9.57;100.00
10921;BME280;5513;50.580;8.818;2023-03-20T06:03:49;99351.81;;;9.48;100.00
10921;BME280;5513;50.580;8.818;2023-03-20T06:06:17;99370.56;;;9.43;100.00
10921;BME280;5513;50.580;8.818;2023-03-20T06:08:45;99370.56;;;9.43;100.00
10921;BME280;5513;50.580;8.818;2023-03-20T06:11:14;99366.63;;;9.51;100.00
10921;BME280;5513;50.580;8.818;2023-03-20T06:13:44;99371.06;;;9.50;100.00
10921;BME280;5513;50.580;8.818;2023-03-20T06:16:13;99373.88;;;9.31;100.00
10921;BME280;5513;50.580;8.818;2023-03-20T06:18:41;99377.91;;;9.38;100.00
10921;BME280;5513;50.580;8.818;2023-03-20T06:21:10;99381.31;;;9.40;100.00
10921;BME280;5513;50.580;8.818;2023-03-20T06:23:39;99377.31;;;9.49;100.00
10921;BME280;5513;50.580;8.818;2023-03-20T06:26:08;99383.84;;;9.42;100.00
10921;BME280;5513;50.580;8.818;2023-03-20T06:28:38;99383.94;;;9.25;100.00
10921;BME280;5513;50.580;8.818;2023-03-20T06:31:07;99375.41;;;9.20;100.00
10921;BME280;5513;50.580;8.818;2023-03-20T06:33:38;99367.06;;;9.11;100.00
10921;BME280;5513;50.580;8.818;2023-03-20T06:36:07;99362.78;;;9.25;100.00
10921;BME280;5513;50.580;8.818;2023-03-20T06:38:37;99360.41;;;9.36;100.00
10921;BME280;5513;50.580;8.818;2023-03-20T06:41:06;99358.97;;;9.30;100.00
10921;BME280;5513;50.580;8.818;2023-03-20T06:43:35;99351.97;;;9.29;100.00
10921;BME280;5513;50.580;8.818;2023-03-20T06:46:08;99361.78;;;9.43;100.00
10921;BME280;5513;50.580;8.818;2023-03-20T06:48:38;99355.88;;;9.54;100.00
10921;BME280;5513;50.580;8.818;2023-03-20T06:51:06;99361.94;;;9.56;100.00
10921;BME280;5513;50.580;8.818;2023-03-20T06:53:35;99360.16;;;9.56;100.00
10921;BME280;5513;50.580;8.818;2023-03-20T06:56:04;99368.84;;;9.58;100.00
10921;BME280;5513;50.580;8.818;2023-03-20T06:58:33;99371.97;;;9.65;100.00
10921;BME280;5513;50.580;8.818;2023-03-20T07:01:01;99384.09;;;9.69;100.00
10921;BME280;5513;50.580;8.818;2023-03-20T07:03:37;99382.88;;;9.74;100.00
10921;BME280;5513;50.580;8.818;2023-03-20T07:06:06;99388.88;;;9.78;100.00
10921;BME280;5513;50.580;8.818;2023-03-20T07:08:34;99393.41;;;9.76;100.00
10921;BME280;5513;50.580;8.818;2023-03-20T07:11:03;99390.66;;;9.78;100.00
10921;BME280;5513;50.580;8.818;2023-03-20T07:13:32;99394.16;;;9.62;100.00
10921;BME280;5513;50.580;8.818;2023-03-20T07:16:01;99395.34;;;9.72;100.00
10921;BME280;5513;50.580;8.818;2023-03-20T07:18:30;99400.13;;;9.82;100.00
10921;BME280;5513;50.580;8.818;2023-03-20T07:21:04;99398.41;;;9.81;100.00
10921;BME280;5513;50.580;8.818;2023-03-20T07:23:33;99395.34;;;9.88;100.00
10921;BME280;5513;50.580;8.818;2023-03-20T07:26:02;99398.50;;;9.79;100.00
10921;BME280;5513;50.580;8.818;2023-03-20T07:28:32;99398.84;;;9.89;100.00
10921;BME280;5513;50.580;8.818;2023-03-20T07:31:00;99395.16;;;9.91;100.00
10921;BME280;5513;50.580;8.818;2023-03-20T07:33:31;99392.50;;;9.91;100.00
10921;BME280;5513;50.580;8.818;2023-03-20T07:35:59;99387.50;;;9.87;100.00
10921;BME280;5513;50.580;8.818;2023-03-20T07:38:29;99385.00;;;9.84;100.00
10921;BME280;5513;50.580;8.818;2023-03-20T07:40:58;99382.78;;;9.92;100.00
10921;BME280;5513;50.580;8.818;2023-03-20T07:43:26;99386.34;;;10.07;100.00
10921;BME280;5513;50.580;8.818;2023-03-20T07:45:55;99385.66;;;10.03;100.00
10921;BME280;5513;50.580;8.818;2023-03-20T07:48:23;99382.25;;;10.01;100.00
10921;BME280;5513;50.580;8.818;2023-03-20T07:50:51;99387.09;;;10.09;100.00
10921;BME280;5513;50.580;8.818;2023-03-20T07:53:20;99371.97;;;10.11;100.00
10921;BME280;5513;50.580;8.818;2023-03-20T07:55:50;99382.47;;;10.12;100.00
10921;BME280;5513;50.580;8.818;2023-03-20T07:58:18;99381.19;;;10.19;100.00
10921;BME280;5513;50.580;8.818;2023-03-20T08:00:47;99383.94;;;10.02;100.00
10921;BME280;5513;50.580;8.818;2023-03-20T08:03:16;99388.16;;;10.06;100.00
10921;BME280;5513;50.580;8.818;2023-03-20T08:05:44;99385.88;;;10.30;100.00
10921;BME280;5513;50.580;8.818;2023-03-20T08:08:13;99383.72;;;10.37;100.00
10921;BME280;5513;50.580;8.818;2023-03-20T08:10:42;99382.22;;;10.47;100.00
10921;BME280;5513;50.580;8.818;2023-03-20T08:13:14;99395.06;;;10.39;100.00
10921;BME280;5513;50.580;8.818;2023-03-20T08:15:43;99403.94;;;10.08;100.00
10921;BME280;5513;50.580;8.818;2023-03-20T08:18:11;99403.09;;;9.91;100.00
10921;BME280;5513;50.580;8.818;2023-03-20T08:20:40;99406.75;;;10.04;100.00
10921;BME280;5513;50.580;8.818;2023-03-20T08:23:08;99403.69;;;9.96;100.00
10921;BME280;5513;50.580;8.818;2023-03-20T08:25:37;99411.00;;;10.07;100.00
10921;BME280;5513;50.580;8.818;2023-03-20T08:28:05;99413.47;;;10.10;100.00
10921;BME280;5513;50.580;8.818;2023-03-20T08:30:35;99412.06;;;9.89;100.00
10921;BME280;5513;50.580;8.818;2023-03-20T08:33:04;99405.84;;;9.90;100.00
10921;BME280;5513;50.580;8.818;2023-03-20T08:35:33;99414.22;;;10.12;100.00
10921;BME280;5513;50.580;8.818;2023-03-20T08:38:01;99418.25;;;10.35;100.00
10921;BME280;5513;50.580;8.818;2023-03-20T08:40:31;99421.31;;;10.12;100.00
10921;BME280;5513;50.580;8.818;2023-03-20T08:42:59;99429.13;;;9.99;100.00
10921;BME280;5513;50.580;8.818;2023-03-20T08:45:29;99429.09;;;10.15;100.00
10921;BME280;5513;50.580;8.818;2023-03-20T08:48:00;99417.19;;;10.38;100.00
10921;BME280;5513;50.580;8.818;2023-03-20T08:50:29;99414.66;;;10.36;100.00
10921;BME280;5513;50.580;8.818;2023-03-20T08:52:59;99422.03;;;10.45;100.00
10921;BME280;5513;50.580;8.818;2023-03-20T08:55:28;99426.59;;;10.43;100.00
10921;BME280;5513;50.580;8.818;2023-03-20T08:57:57;99424.97;;;9.95;100.00
10921;BME280;5513;50.580;8.818;2023-03-20T09:00:25;99427.47;;;10.12;100.00
10921;BME280;5513;50.580;8.818;2023-03-20T09:02:54;99420.97;;;10.18;100.00
10921;BME280;5513;50.580;8.818;2023-03-20T09:05:24;99424.91;;;10.11;100.00
10921;BME280;5513;50.580;8.818;2023-03-20T09:07:53;99421.94;;;10.17;100.00
10921;BME280;5513;50.580;8.818;2023-03-20T09:10:21;99427.56;;;10.11;100.00
10921;BME280;5513;50.580;8.818;2023-03-20T09:12:49;99421.84;;;10.48;100.00
10921;BME280;5513;50.580;8.818;2023-03-20T09:15:18;99423.56;;;10.49;100.00
10921;BME280;5513;50.580;8.818;2023-03-20T09:17:46;99421.69;;;10.66;100.00
10921;BME280;5513;50.580;8.818;2023-03-20T09:20:15;99415.97;;;11.02;100.00
10921;BME280;5513;50.580;8.818;2023-03-20T09:22:45;99411.69;;;10.85;100.00
10921;BME280;5513;50.580;8.818;2023-03-20T09:25:14;99425.34;;;10.93;100.00
10921;BME280;5513;50.580;8.818;2023-03-20T09:27:44;99420.19;;;10.90;100.00
10921;BME280;5513;50.580;8.818;2023-03-20T09:30:13;99412.56;;;11.14;100.00
10921;BME280;5513;50.580;8.818;2023-03-20T09:32:43;99414.47;;;11.12;100.00
10921;BME280;5513;50.580;8.818;2023-03-20T09:35:14;99414.44;;;11.40;100.00
10921;BME280;5513;50.580;8.818;2023-03-20T09:37:44;99416.19;;;11.54;100.00
10921;BME280;5513;50.580;8.818;2023-03-20T09:40:21;99408.97;;;11.56;100.00
10921;BME280;5513;50.580;8.818;2023-03-20T09:42:57;99418.31;;;11.49;100.00
10921;BME280;5513;50.580;8.818;2023-03-20T09:45:42;99409.81;;;11.30;100.00
10921;BME280;5513;50.580;8.818;2023-03-20T09:48:16;99414.03;;;11.46;100.00
10921;BME280;5513;50.580;8.818;2023-03-20T09:50:52;99423.53;;;11.78;100.00
10921;BME280;5513;50.580;8.818;2023-03-20T09:53:28;99416.19;;;11.95;100.00
10921;BME280;5513;50.580;8.818;2023-03-20T09:56:00;99411.94;;;11.52;100.00
10921;BME280;5513;50.580;8.818;2023-03-20T09:58:31;99416.91;;;11.85;100.00
10921;BME280;5513;50.580;8.818;2023-03-20T10:01:03;99412.47;;;11.71;100.00
10921;BME280;5513;50.580;8.818;2023-03-20T10:03:49;99421.34;;;11.84;100.00
10921;BME280;5513;50.580;8.818;2023-03-20T10:06:19;99408.06;;;11.98;100.00
10921;BME280;5513;50.580;8.818;2023-03-20T10:08:51;99426.41;;;12.28;100.00
10921;BME280;5513;50.580;8.818;2023-03-20T10:11:48;99412.28;;;12.28;100.00
10921;BME280;5513;50.580;8.818;2023-03-20T10:14:24;99406.47;;;11.40;100.00
10921;BME280;5513;50.580;8.818;2023-03-20T10:17:09;99419.31;;;11.46;100.00
10921;BME280;5513;50.580;8.818;2023-03-20T10:19:43;99434.91;;;11.24;100.00
10921;BME280;5513;50.580;8.818;2023-03-20T10:22:20;99422.00;;;11.32;100.00
10921;BME280;5513;50.580;8.818;2023-03-20T10:25:01;99423.78;;;11.60;100.00
10921;BME280;5513;50.580;8.818;2023-03-20T10:27:36;99421.88;;;11.62;100.00
10921;BME280;5513;50.580;8.818;2023-03-20T10:30:22;99419.56;;;11.70;100.00
10921;BME280;5513;50.580;8.818;2023-03-20T10:33:01;99414.53;;;11.66;100.00
10921;BME280;5513;50.580;8.818;2023-03-20T10:35:38;99415.75;;;11.74;100.00
10921;BME280;5513;50.580;8.818;2023-03-20T10:38:16;99409.16;;;11.82;100.00
10921;BME280;5513;50.580;8.818;2023-03-20T10:40:58;99416.91;;;11.70;100.00
10921;BME280;5513;50.580;8.818;2023-03-20T10:43:29;99417.78;;;11.57;100.00
10921;BME280;5513;50.580;8.818;2023-03-20T10:46:02;99420.97;;;11.49;100.00
10921;BME280;5513;50.580;8.818;2023-03-20T10:48:37;99413.53;;;11.54;100.00
10921;BME280;5513;50.580;8.818;2023-03-20T10:51:12;99421.13;;;11.60;100.00
10921;BME280;5513;50.580;8.818;2023-03-20T10:53:47;99407.19;;;11.57;100.00
10921;BME280;5513;50.580;8.818;2023-03-20T10:56:26;99412.34;;;11.31;100.00
10921;BME280;5513;50.580;8.818;2023-03-20T10:59:03;99414.66;;;11.64;100.00
10921;BME280;5513;50.580;8.818;2023-03-20T11:01:34;99411.09;;;11.51;100.00
10921;BME280;5513;50.580;8.818;2023-03-20T11:04:04;99415.41;;;11.66;100.00
10921;BME280;5513;50.580;8.818;2023-03-20T11:06:42;99404.72;;;11.54;100.00
10921;BME280;5513;50.580;8.818;2023-03-20T11:09:20;99394.22;;;11.52;100.00
10921;BME280;5513;50.580;8.818;2023-03-20T11:11:56;99397.09;;;11.35;100.00
10921;BME280;5513;50.580;8.818;2023-03-20T11:14:34;99399.75;;;11.35;100.00
10921;BME280;5513;50.580;8.818;2023-03-20T11:17:08;99394.09;;;11.68;100.00
10921;BME280;5513;50.580;8.818;2023-03-20T11:19:41;99395.88;;;11.67;100.00
10921;BME280;5513;50.580;8.818;2023-03-20T11:22:22;99387.59;;;11.86;100.00
10921;BME280;5513;50.580;8.818;2023-03-20T11:24:55;99382.50;;;11.83;100.00
10921;BME280;5513;50.580;8.818;2023-03-20T11:27:30;99386.56;;;11.89;100.00
10921;BME280;5513;50.580;8.818;2023-03-20T11:30:02;99382.00;;;11.76;100.00
10921;BME280;5513;50.580;8.818;2023-03-20T11:32:35;99374.88;;;11.91;100.00
10921;BME280;5513;50.580;8.818;2023-03-20T11:35:18;99372.72;;;11.84;100.00
10921;BME280;5513;50.580;8.818;2023-03-20T11:37:51;99371.03;;;11.83;100.00
10921;BME280;5513;50.580;8.818;2023-03-20T11:40:21;99365.19;;;12.17;100.00
10921;BME280;5513;50.580;8.818;2023-03-20T11:42:55;99367.56;;;12.47;100.00
10921;BME280;5513;50.580;8.818;2023-03-20T11:45:24;99362.25;;;12.73;100.00
10921;BME280;5513;50.580;8.818;2023-03-20T11:47:55;99361.19;;;12.50;100.00
10921;BME280;5513;50.580;8.818;2023-03-20T11:50:26;99363.31;;;12.45;100.00
10921;BME280;5513;50.580;8.818;2023-03-20T11:52:57;99353.72;;;12.93;100.00
10921;BME280;5513;50.580;8.818;2023-03-20T11:55:28;99345.53;;;13.22;100.00
10921;BME280;5513;50.580;8.818;2023-03-20T11:58:02;99342.81;;;12.85;100.00
10921;BME280;5513;50.580;8.818;2023-03-20T12:00:36;99342.97;;;13.20;100.00
10921;BME280;5513;50.580;8.818;2023-03-20T12:06:14;99321.28;;;13.01;100.00
10921;BME280;5513;50.580;8.818;2023-03-20T12:08:49;99329.44;;;13.36;100.00
10921;BME280;5513;50.580;8.818;2023-03-20T12:11:29;99335.94;;;13.56;100.00
10921;BME280;5513;50.580;8.818;2023-03-20T12:14:07;99339.75;;;13.64;100.00
10921;BME280;5513;50.580;8.818;2023-03-20T12:16:42;99322.41;;;13.35;100.00
10921;BME280;5513;50.580;8.818;2023-03-20T12:19:16;99324.78;;;13.51;100.00
10921;BME280;5513;50.580;8.818;2023-03-20T12:21:52;99308.69;;;13.28;100.00
10921;BME280;5513;50.580;8.818;2023-03-20T12:24:34;99317.31;;;13.32;100.00
10921;BME280;5513;50.580;8.818;2023-03-20T12:27:20;99312.25;;;13.40;100.00
10921;BME280;5513;50.580;8.818;2023-03-20T12:29:57;99315.94;;;13.26;100.00
10921;BME280;5513;50.580;8.818;2023-03-20T12:32:34;99294.81;;;12.99;100.00
10921;BME280;5513;50.580;8.818;2023-03-20T12:35:12;99295.53;;;13.01;100.00
10921;BME280;5513;50.580;8.818;2023-03-20T12:37:43;99297.44;;;13.25;100.00
10921;BME280;5513;50.580;8.818;2023-03-20T12:40:12;99298.53;;;13.22;100.00
10921;BME280;5513;50.580;8.818;2023-03-20T12:42:52;99296.78;;;13.21;100.00
10921;BME280;5513;50.580;8.818;2023-03-20T12:45:30;99288.84;;;13.45;100.00
10921;BME280;5513;50.580;8.818;2023-03-20T12:48:15;99286.06;;;13.23;100.00
10921;BME280;5513;50.580;8.818;2023-03-20T12:50:51;99287.03;;;13.09;100.00
10921;BME280;5513;50.580;8.818;2023-03-20T12:53:33;99281.47;;;13.12;99.95
10921;BME280;5513;50.580;8.818;2023-03-20T12:56:15;99270.09;;;13.46;100.00
10921;BME280;5513;50.580;8.818;2023-03-20T12:58:47;99275.94;;;13.15;96.39
10921;BME280;5513;50.580;8.818;2023-03-20T13:01:26;99285.84;;;13.26;98.99
10921;BME280;5513;50.580;8.818;2023-03-20T13:04:22;99259.09;;;13.03;95.98
10921;BME280;5513;50.580;8.818;2023-03-20T13:07:00;99256.47;;;13.27;99.08
10921;BME280;5513;50.580;8.818;2023-03-20T13:09:40;99257.94;;;13.18;99.16
10921;BME280;5513;50.580;8.818;2023-03-20T13:12:21;99254.81;;;13.01;96.81
10921;BME280;5513;50.580;8.818;2023-03-20T13:14:57;99259.84;;;13.29;94.56
10921;BME280;5513;50.580;8.818;2023-03-20T13:17:34;99257.31;;;13.52;93.39
10921;BME280;5513;50.580;8.818;2023-03-20T13:20:32;99266.59;;;13.09;92.38
10921;BME280;5513;50.580;8.818;2023-03-20T13:23:22;99276.09;;;13.37;87.11
10921;BME280;5513;50.580;8.818;2023-03-20T13:26:19;99269.59;;;13.41;85.16
10921;BME280;5513;50.580;8.818;2023-03-20T13:29:00;99269.66;;;13.16;82.31
10921;BME280;5513;50.580;8.818;2023-03-20T13:31:40;99258.91;;;13.17;84.08
10921;BME280;5513;50.580;8.818;2023-03-20T13:34:23;99261.72;;;13.64;86.53
10921;BME280;5513;50.580;8.818;2023-03-20T13:37:07;99255.81;;;13.48;79.50
10921;BME280;5513;50.580;8.818;2023-03-20T13:39:58;99269.91;;;13.13;79.31
10921;BME280;5513;50.580;8.818;2023-03-20T13:42:31;99269.38;;;13.08;78.37